Luxi, China
Current Conditions -  °F | °C
As of 4:00 PM on Wednesday 22 Oct 2014 (Local Time) from ZPPP Reporting Station
Scattered Clouds Scattered Clouds  
Wind Chill: 70°   Ceiling: Unl
Heat Index: 70°   Visibility: 6mi
Dew Point: 46°   Wind: 11mph
Humidity: 43%   Direction: 240°WSW
Pressure: 30.27"   Gusts: NA
Location:  24.53°N, 103.77°E
Report Text: ZPPP 220800Z 24005MPS 210V280 9999 SCT026 21/08 Q1025 NOSIG
Loading
Personal Weather Stations






























Interactive Weather Map
Tropical Storm Tracking
New forecast layout! Learn more

10-Day Weather Forecast

Advertisements
Track Severe Weather on mobile